Time;durP1;ratioP1;P1;durP2;ratioP2;P2;SDS_P1;SDS_P2;PMS_P1;PMS_P2;Temp;Humidity;BMP_temperature;BMP_pressure;BME280_temperature;BME280_humidity;BME280_pressure;Samples;Min_cycle;Max_cycle;Signal;HPM_P1;HPM_P2
2022/10/28 00:00:04;;;;;;;7.65;4.65;;;9.60;99.90;;;;;;4999827;28;20038;-79
2022/10/28 00:02:30;;;;;;;7.60;4.45;;;9.60;99.90;;;;;;5001509;28;20043;-79
2022/10/28 00:04:56;;;;;;;2.88;2.38;;;9.70;99.90;;;;;;5002719;28;20586;-79
2022/10/28 00:07:21;;;;;;;3.30;2.40;;;9.70;99.90;;;;;;5003988;28;20038;-81
2022/10/28 00:09:47;;;;;;;2.38;2.13;;;9.70;99.90;;;;;;5009979;28;20038;-80
2022/10/28 00:12:13;;;;;;;2.63;2.15;;;9.70;99.90;;;;;;4997220;28;20045;-78
2022/10/28 00:14:39;;;;;;;2.17;1.98;;;9.70;99.90;;;;;;5000567;28;20573;-79
2022/10/28 00:17:05;;;;;;;6.32;2.45;;;9.70;99.90;;;;;;4999298;28;20041;-81
2022/10/28 00:19:31;;;;;;;4.20;2.35;;;9.70;99.90;;;;;;5006817;28;20034;-80
2022/10/28 00:21:56;;;;;;;3.33;2.17;;;9.70;99.90;;;;;;5008227;28;20759;-80
2022/10/28 00:24:22;;;;;;;6.75;2.38;;;9.70;99.90;;;;;;4998051;28;20540;-81
2022/10/28 00:26:48;;;;;;;4.07;2.50;;;9.70;99.90;;;;;;5002162;28;20474;-80
2022/10/28 00:29:19;;;;;;;4.13;2.50;;;9.60;99.90;;;;;;5001949;28;20057;-80
2022/10/28 00:31:46;;;;;;;2.70;2.28;;;9.60;99.90;;;;;;5001555;28;20403;-79
2022/10/28 00:34:15;;;;;;;2.42;2.22;;;9.60;99.90;;;;;;4999980;28;20157;-80
2022/10/28 00:36:42;;;;;;;1.80;1.70;;;9.50;99.90;;;;;;4990204;28;20545;-80
2022/10/28 00:39:26;;;;;;;2.20;2.00;;;9.50;99.90;;;;;;5003452;28;20037;-78
2022/10/28 00:42:02;;;;;;;2.92;2.20;;;9.40;99.90;;;;;;5000722;28;20039;-80
2022/10/28 00:45:03;;;;;;;3.78;1.92;;;9.40;99.90;;;;;;5006647;28;20029;-80
2022/10/28 00:47:54;;;;;;;2.67;2.05;;;9.30;99.90;;;;;;5003750;28;20045;-81
2022/10/28 00:50:37;;;;;;;4.05;1.98;;;9.40;99.90;;;;;;5005939;28;20550;-79
2022/10/28 00:53:16;;;;;;;2.20;2.00;;;9.30;99.90;;;;;;5002353;28;20060;-80
2022/10/28 00:55:43;;;;;;;;;;;9.30;99.90;;;;;;4992913;28;20045;-81
2022/10/28 00:58:10;;;;;;;2.03;1.80;;;9.30;99.90;;;;;;4995358;28;19980;-80
2022/10/28 01:00:35;;;;;;;6.07;2.70;;;9.30;99.90;;;;;;5003843;28;20045;-79
2022/10/28 01:03:01;;;;;;;2.90;2.22;;;9.30;99.90;;;;;;5006848;28;20033;-80
2022/10/28 01:05:30;;;;;;;3.53;2.10;;;9.30;99.90;;;;;;4998482;28;20461;-78
2022/10/28 01:07:59;;;;;;;;;;;9.30;99.90;;;;;;5001818;28;20051;-80
2022/10/28 01:10:53;;;;;;;3.53;2.38;;;9.20;99.90;;;;;;4996845;28;19910;-80
2022/10/28 01:13:37;;;;;;;3.85;2.20;;;9.10;99.90;;;;;;5002206;28;20069;-79
2022/10/28 01:16:30;;;;;;;4.28;2.20;;;9.10;99.90;;;;;;5006789;28;20038;-78
2022/10/28 01:19:23;;;;;;;4.03;2.17;;;9.00;99.90;;;;;;4996856;28;20027;-78
2022/10/28 01:22:10;;;;;;;3.00;1.90;;;9.00;99.90;;;;;;4995894;28;20057;-80
2022/10/28 01:25:05;;;;;;;5.43;2.33;;;9.10;99.90;;;;;;5005576;28;20029;-79
2022/10/28 01:27:34;;;;;;;2.55;2.35;;;9.00;99.90;;;;;;5001037;28;20026;-79
2022/10/28 01:30:08;;;;;;;2.42;2.08;;;8.80;99.90;;;;;;5002845;28;20034;-79
2022/10/28 01:33:01;;;;;;;1.80;1.70;;;8.80;99.90;;;;;;4992921;28;20101;-79
2022/10/28 01:35:56;;;;;;;2.80;1.38;;;8.70;99.90;;;;;;4987425;28;20420;-79
2022/10/28 01:38:47;;;;;;;1.83;1.67;;;8.80;99.90;;;;;;5002947;28;20042;-80
2022/10/28 01:41:22;;;;;;;2.67;2.03;;;8.90;99.90;;;;;;4999273;28;20054;-79
2022/10/28 01:44:03;;;;;;;4.35;1.70;;;8.90;99.90;;;;;;4987367;28;20030;-79
2022/10/28 01:46:38;;;;;;;1.83;1.63;;;8.90;99.90;;;;;;5004009;28;20030;-79
2022/10/28 01:49:18;;;;;;;4.10;2.10;;;8.90;99.90;;;;;;5001673;28;20027;-79
2022/10/28 01:51:52;;;;;;;3.35;2.03;;;8.90;99.90;;;;;;4990467;28;20041;-79
2022/10/28 01:54:23;;;;;;;3.13;2.17;;;8.70;99.90;;;;;;4992237;28;20034;-78
2022/10/28 01:56:51;;;;;;;3.08;2.03;;;8.70;99.90;;;;;;4987828;28;20037;-79
2022/10/28 01:59:23;;;;;;;;;;;8.70;99.90;;;;;;5005185;28;20037;-79
2022/10/28 02:01:49;;;;;;;2.13;1.92;;;8.80;99.90;;;;;;4987733;28;19914;-80
2022/10/28 02:04:15;;;;;;;1.60;1.50;;;8.70;99.90;;;;;;5005879;28;20097;-80
2022/10/28 02:06:44;;;;;;;1.90;1.60;;;8.70;99.90;;;;;;5002080;28;20031;-78
2022/10/28 02:09:27;;;;;;;2.55;1.33;;;8.70;99.90;;;;;;5000572;28;20043;-79
2022/10/28 02:12:10;;;;;;;1.50;1.40;;;8.70;99.90;;;;;;4998222;28;20101;-79
2022/10/28 02:15:04;;;;;;;1.75;1.45;;;8.60;99.90;;;;;;4998006;28;20049;-79
2022/10/28 02:17:54;;;;;;;1.58;1.48;;;8.60;99.90;;;;;;5012266;28;20030;-79
2022/10/28 02:20:38;;;;;;;1.60;1.50;;;8.60;99.90;;;;;;5002772;28;20054;-79
2022/10/28 02:23:40;;;;;;;1.80;1.70;;;8.60;99.90;;;;;;4995449;28;20068;-80
2022/10/28 02:26:12;;;;;;;1.88;1.50;;;8.60;99.90;;;;;;5004125;28;20037;-79
2022/10/28 02:29:02;;;;;;;1.92;1.80;;;8.70;99.90;;;;;;5003034;28;20458;-79
2022/10/28 02:31:54;;;;;;;5.43;2.30;;;8.70;99.90;;;;;;5001246;28;20043;-79
2022/10/28 02:34:28;;;;;;;3.80;2.00;;;8.60;99.90;;;;;;5002661;28;20045;-79
2022/10/28 02:36:59;;;;;;;3.28;2.13;;;8.60;99.90;;;;;;5000062;28;20038;-78
2022/10/28 02:39:31;;;;;;;3.03;1.63;;;8.60;99.90;;;;;;4998464;28;20030;-79
2022/10/28 02:42:02;;;;;;;1.70;1.60;;;8.50;99.90;;;;;;4992201;28;20046;-80
2022/10/28 02:44:32;;;;;;;1.70;1.60;;;8.50;99.90;;;;;;4995397;28;20038;-79
2022/10/28 02:47:04;;;;;;;2.17;1.58;;;8.30;99.90;;;;;;5004827;28;20025;-78
2022/10/28 02:49:32;;;;;;;1.48;1.38;;;8.40;99.90;;;;;;5002496;28;20102;-79
2022/10/28 02:51:59;;;;;;;;;;;8.30;99.90;;;;;;4999083;28;20029;-79
2022/10/28 02:54:42;;;;;;;2.92;1.85;;;8.40;99.90;;;;;;4996975;28;19918;-79
2022/10/28 02:57:31;;;;;;;5.38;2.10;;;8.30;99.90;;;;;;5001553;28;20019;-79
2022/10/28 03:00:05;;;;;;;4.00;2.38;;;8.30;99.90;;;;;;4993705;28;20034;-78
2022/10/28 03:02:31;;;;;;;1.80;1.70;;;8.30;99.90;;;;;;4999851;28;20389;-78
2022/10/28 03:04:56;;;;;;;2.10;1.50;;;8.10;99.90;;;;;;4999819;28;20058;-78
2022/10/28 03:07:22;;;;;;;2.17;1.70;;;8.10;99.90;;;;;;5005051;28;20077;-79
2022/10/28 03:09:48;;;;;;;4.82;1.90;;;8.10;99.90;;;;;;5005277;28;20040;-79
2022/10/28 03:12:14;;;;;;;4.53;2.45;;;8.20;99.90;;;;;;5008002;28;20058;-79
2022/10/28 03:14:41;;;;;;;5.03;2.67;;;8.00;99.90;;;;;;5007687;28;20035;-79
2022/10/28 03:17:07;;;;;;;3.40;1.88;;;8.00;99.90;;;;;;5003766;28;20033;-78
2022/10/28 03:19:38;;;;;;;6.07;2.30;;;7.90;99.90;;;;;;4989591;28;20043;-79
2022/10/28 03:22:08;;;;;;;1.88;1.77;;;8.00;99.90;;;;;;5005830;28;20041;-78
2022/10/28 03:24:33;;;;;;;1.88;1.77;;;8.00;99.90;;;;;;5002176;28;20034;-79
2022/10/28 03:26:59;;;;;;;1.50;1.40;;;8.00;99.90;;;;;;4987894;28;20045;-78
2022/10/28 03:29:25;;;;;;;3.33;1.80;;;8.00;99.90;;;;;;4982520;28;20542;-79
2022/10/28 03:31:51;;;;;;;1.90;1.80;;;8.00;99.90;;;;;;5002226;28;20042;-78
2022/10/28 03:34:16;;;;;;;2.33;1.75;;;8.10;99.90;;;;;;4993320;28;20138;-78
2022/10/28 03:36:42;;;;;;;1.60;1.50;;;8.10;99.90;;;;;;5001832;28;20062;-79
2022/10/28 03:39:07;;;;;;;9.90;2.47;;;8.10;99.90;;;;;;5003733;28;20041;-79
2022/10/28 03:41:33;;;;;;;2.00;1.88;;;8.20;99.90;;;;;;4997225;28;20029;-80
2022/10/28 03:43:59;;;;;;;3.00;1.95;;;8.10;99.90;;;;;;5004741;28;20041;-79
2022/10/28 03:46:24;;;;;;;4.10;2.20;;;8.00;99.90;;;;;;5006559;28;20035;-79
2022/10/28 03:48:50;;;;;;;1.90;1.80;;;8.00;99.90;;;;;;5002421;28;20114;-79
2022/10/28 03:51:16;;;;;;;1.70;1.60;;;8.00;99.90;;;;;;5005707;28;20061;-79
2022/10/28 03:53:42;;;;;;;2.17;1.27;;;8.00;99.90;;;;;;5005293;28;20022;-79
2022/10/28 03:56:08;;;;;;;1.48;1.48;;;8.00;99.90;;;;;;5004580;28;20042;-79
2022/10/28 03:58:34;;;;;;;1.80;1.70;;;8.10;99.90;;;;;;5003828;28;20038;-79
2022/10/28 04:00:59;;;;;;;3.70;2.15;;;8.20;99.90;;;;;;5004279;28;20054;-79
2022/10/28 04:03:25;;;;;;;20.80;8.20;;;8.10;99.90;;;;;;5003811;28;20076;-79
2022/10/28 04:05:51;;;;;;;17.20;7.65;;;8.10;99.90;;;;;;5003483;28;20038;-78
2022/10/28 04:08:18;;;;;;;17.95;7.50;;;8.10;99.90;;;;;;5006504;28;20026;-79
2022/10/28 04:10:44;;;;;;;12.65;5.55;;;8.20;99.90;;;;;;5000206;28;20041;-80
2022/10/28 04:13:11;;;;;;;2.63;2.00;;;8.10;99.90;;;;;;5004409;28;20030;-78
2022/10/28 04:15:37;;;;;;;1.98;1.88;;;8.10;99.90;;;;;;5004603;28;20777;-79
2022/10/28 04:18:06;;;;;;;3.90;1.88;;;8.00;99.90;;;;;;5001783;28;20062;-78
2022/10/28 04:20:32;;;;;;;5.22;2.90;;;8.10;99.90;;;;;;4990157;28;20038;-79
2022/10/28 04:22:57;;;;;;;3.15;2.78;;;8.10;99.90;;;;;;5003917;28;20074;-79
2022/10/28 04:25:26;;;;;;;6.20;3.90;;;8.10;99.90;;;;;;5004213;28;20043;-79
2022/10/28 04:27:55;;;;;;;5.40;3.40;;;8.10;99.90;;;;;;5001565;28;20495;-79
2022/10/28 04:30:23;;;;;;;5.45;3.30;;;8.20;99.90;;;;;;5004541;28;20033;-78
2022/10/28 04:32:50;;;;;;;3.03;2.55;;;8.10;99.90;;;;;;5000072;28;20030;-78
2022/10/28 04:35:21;;;;;;;4.28;2.60;;;8.10;99.90;;;;;;5005151;28;20035;-79
2022/10/28 04:37:47;;;;;;;2.83;2.33;;;8.10;99.90;;;;;;5003110;28;20133;-79
2022/10/28 04:40:16;;;;;;;3.78;2.58;;;8.10;99.90;;;;;;4987684;28;20026;-80
2022/10/28 04:42:42;;;;;;;3.08;2.25;;;8.00;99.90;;;;;;4990530;28;20042;-79
2022/10/28 04:45:08;;;;;;;4.63;2.53;;;7.90;99.90;;;;;;5007722;28;20033;-79
2022/10/28 04:47:34;;;;;;;4.10;2.25;;;7.90;99.90;;;;;;5007564;28;20018;-79
2022/10/28 04:50:00;;;;;;;2.55;2.17;;;7.90;99.90;;;;;;4991461;28;20062;-80
2022/10/28 04:52:26;;;;;;;4.53;2.53;;;7.70;99.90;;;;;;5010937;28;20031;-79
2022/10/28 04:54:51;;;;;;;2.97;2.47;;;7.80;99.90;;;;;;5002110;28;20039;-79
2022/10/28 04:57:17;;;;;;;8.90;2.65;;;7.80;99.90;;;;;;4996175;28;20038;-79
2022/10/28 04:59:46;;;;;;;2.05;1.95;;;7.70;99.90;;;;;;5000160;28;20057;-78
2022/10/28 05:02:12;;;;;;;2.10;1.90;;;7.60;99.90;;;;;;4996758;28;20038;-79
2022/10/28 05:04:40;;;;;;;2.55;2.00;;;7.60;99.90;;;;;;5005283;28;20053;-80
2022/10/28 05:07:06;;;;;;;2.30;2.00;;;7.60;99.90;;;;;;4981800;28;20046;-80
2022/10/28 05:09:31;;;;;;;3.50;2.30;;;7.60;99.90;;;;;;4999493;28;20027;-78
2022/10/28 05:12:00;;;;;;;2.35;2.10;;;7.50;99.90;;;;;;5006640;28;20085;-79
2022/10/28 05:14:26;;;;;;;;;;;7.60;99.90;;;;;;5003510;28;20037;-78
2022/10/28 05:16:51;;;;;;;1.77;1.67;;;7.60;99.90;;;;;;5001287;28;20052;-79
2022/10/28 05:19:17;;;;;;;2.17;1.42;;;7.50;99.90;;;;;;5001221;28;20037;-78
2022/10/28 05:21:43;;;;;;;1.65;1.55;;;7.20;99.90;;;;;;5005292;28;20030;-80
2022/10/28 05:24:08;;;;;;;1.83;1.73;;;7.30;99.90;;;;;;5011644;28;21395;-78
2022/10/28 05:26:34;;;;;;;3.38;1.83;;;7.40;99.90;;;;;;5000690;28;20114;-79
2022/10/28 05:29:00;;;;;;;3.33;2.30;;;7.50;99.90;;;;;;5001084;28;20026;-79
2022/10/28 05:31:26;;;;;;;3.85;2.78;;;7.50;99.90;;;;;;5003574;28;20052;-79
2022/10/28 05:33:52;;;;;;;3.63;2.40;;;7.60;99.90;;;;;;5004392;28;20040;-79
2022/10/28 05:36:18;;;;;;;2.65;2.42;;;7.60;99.90;;;;;;4996412;28;20094;-79
2022/10/28 05:38:44;;;;;;;6.88;2.17;;;7.70;99.90;;;;;;4999513;28;20030;-80
2022/10/28 05:41:10;;;;;;;1.90;1.80;;;7.70;99.90;;;;;;5006510;28;20470;-79
2022/10/28 05:43:38;;;;;;;5.85;1.95;;;7.80;99.90;;;;;;4985801;28;20030;-79
2022/10/28 05:46:04;;;;;;;3.53;2.70;;;7.70;99.90;;;;;;4999364;28;20037;-78
2022/10/28 05:48:30;;;;;;;3.47;2.25;;;7.60;99.90;;;;;;4995897;28;20098;-80
2022/10/28 05:50:56;;;;;;;3.65;2.75;;;7.60;99.90;;;;;;5002146;28;20049;-79
2022/10/28 05:53:21;;;;;;;4.72;2.30;;;7.50;99.90;;;;;;4999959;28;20061;-80
2022/10/28 05:55:47;;;;;;;4.30;2.10;;;7.60;99.90;;;;;;5001823;28;20035;-79
2022/10/28 05:58:13;;;;;;;4.07;2.40;;;7.60;99.90;;;;;;5005534;28;20053;-78
2022/10/28 06:00:41;;;;;;;4.68;4.10;;;7.60;99.90;;;;;;5003792;28;20061;-79
2022/10/28 06:03:09;;;;;;;;;;;7.60;99.90;;;;;;5003583;28;20038;-80
2022/10/28 06:05:36;;;;;;;3.20;2.72;;;7.70;99.90;;;;;;4998404;28;19937;-79
2022/10/28 06:08:06;;;;;;;3.88;2.60;;;7.60;99.90;;;;;;4999983;28;20053;-79
2022/10/28 06:10:35;;;;;;;2.25;2.05;;;7.60;99.90;;;;;;4995067;28;20031;-78
2022/10/28 06:13:04;;;;;;;7.25;4.82;;;7.60;99.90;;;;;;4984107;28;20026;-78
2022/10/28 06:15:30;;;;;;;4.75;3.75;;;7.70;99.90;;;;;;5002528;28;20062;-80
2022/10/28 06:17:57;;;;;;;3.97;3.58;;;7.70;99.90;;;;;;5008951;28;20030;-80
2022/10/28 06:20:25;;;;;;;11.40;8.80;;;7.80;99.90;;;;;;5015535;28;20030;-80
2022/10/28 06:22:52;;;;;;;;;;;7.80;99.90;;;;;;5010724;28;20038;-80
2022/10/28 06:25:22;;;;;;;7.95;3.90;;;7.80;99.90;;;;;;5005886;28;19909;-80
2022/10/28 06:28:03;;;;;;;5.28;4.07;;;7.80;99.90;;;;;;4990241;28;20102;-78
2022/10/28 06:30:29;;;;;;;7.40;3.40;;;7.90;99.90;;;;;;4992898;28;20057;-80
2022/10/28 06:32:59;;;;;;;7.82;3.58;;;8.00;99.90;;;;;;5016447;28;20026;-79
2022/10/28 06:35:28;;;;;;;6.22;3.33;;;7.90;99.90;;;;;;4993719;28;20011;-79
2022/10/28 06:37:57;;;;;;;5.68;3.50;;;7.90;99.90;;;;;;4979260;28;20044;-80
2022/10/28 06:40:26;;;;;;;5.38;3.30;;;8.00;99.90;;;;;;4991225;28;20069;-80
2022/10/28 06:43:00;;;;;;;5.85;3.10;;;8.00;99.90;;;;;;4995204;28;20034;-79
2022/10/28 06:45:34;;;;;;;4.93;3.15;;;7.90;99.90;;;;;;4992846;28;20050;-79
2022/10/28 06:48:04;;;;;;;5.55;3.00;;;8.00;99.90;;;;;;5010976;28;20037;-80
2022/10/28 06:50:32;;;;;;;2.28;1.92;;;8.00;99.90;;;;;;4990295;28;20026;-80
2022/10/28 06:52:59;;;;;;;5.03;2.00;;;7.90;99.90;;;;;;5003475;28;20080;-79
2022/10/28 06:55:26;;;;;;;2.10;1.90;;;7.80;99.90;;;;;;4978815;28;20073;-80
2022/10/28 06:58:00;;;;;;;2.38;1.90;;;7.80;99.90;;;;;;4997877;28;20011;-79
2022/10/28 07:00:30;;;;;;;2.88;2.00;;;7.90;99.90;;;;;;4987047;28;20014;-80
2022/10/28 07:02:56;;;;;;;2.78;2.30;;;8.00;99.90;;;;;;5003911;23;20023;-29
2022/10/28 07:05:25;;;;;;;2.90;2.60;;;8.00;99.90;;;;;;4990881;28;20517;-29
2022/10/28 07:07:50;;;;;;;3.42;2.40;;;8.10;99.90;;;;;;4987962;28;20023;-32
2022/10/28 07:10:16;;;;;;;3.17;2.50;;;8.20;99.90;;;;;;4987321;28;20582;-31
2022/10/28 07:12:42;;;;;;;3.15;2.85;;;8.30;99.90;;;;;;4992073;28;20116;-33
2022/10/28 07:15:09;;;;;;;3.63;2.67;;;8.40;99.90;;;;;;4988979;28;20022;-30
2022/10/28 07:17:35;;;;;;;7.82;3.15;;;8.50;99.90;;;;;;4986717;28;20058;-31
2022/10/28 07:20:00;;;;;;;7.95;3.00;;;8.60;99.90;;;;;;4987885;28;20022;-31
2022/10/28 07:22:26;;;;;;;4.07;2.40;;;8.70;99.90;;;;;;4985343;28;20463;-35
2022/10/28 07:24:52;;;;;;;5.60;3.13;;;8.80;99.90;;;;;;4990098;28;20026;-31
2022/10/28 07:27:18;;;;;;;5.28;3.05;;;8.90;99.90;;;;;;4987620;28;20038;-31
2022/10/28 07:29:44;;;;;;;4.82;2.90;;;9.00;99.90;;;;;;4990571;28;20568;-29
2022/10/28 07:32:10;;;;;;;6.47;2.97;;;9.00;99.90;;;;;;4984976;28;20045;-30
2022/10/28 07:34:35;;;;;;;9.50;2.50;;;9.10;99.90;;;;;;4995636;28;20030;-33
2022/10/28 07:37:03;;;;;;;5.90;2.72;;;9.20;99.90;;;;;;5000395;28;20100;-30
2022/10/28 07:39:29;;;;;;;4.93;2.60;;;9.20;99.90;;;;;;4987351;28;20388;-29
2022/10/28 07:41:55;;;;;;;3.65;2.72;;;9.30;99.90;;;;;;4987627;28;20077;-30
2022/10/28 07:44:21;;;;;;;2.58;2.35;;;9.40;99.90;;;;;;4986408;28;20027;-30
2022/10/28 07:46:47;;;;;;;7.35;2.72;;;9.40;99.90;;;;;;4984890;28;20142;-35
2022/10/28 07:49:13;;;;;;;7.68;3.20;;;9.50;99.90;;;;;;4981942;28;20115;-30
2022/10/28 07:51:39;;;;;;;7.07;3.17;;;9.60;99.90;;;;;;4981335;28;20043;-31
2022/10/28 07:54:05;;;;;;;4.00;2.83;;;9.70;99.90;;;;;;4989968;28;20499;-31
2022/10/28 07:56:31;;;;;;;4.15;2.70;;;9.70;99.90;;;;;;4989767;28;20095;-35
2022/10/28 07:58:56;;;;;;;5.88;2.75;;;9.80;99.90;;;;;;5004465;28;20093;-32
2022/10/28 08:01:22;;;;;;;5.68;2.78;;;9.80;99.90;;;;;;4994609;28;20049;-31
2022/10/28 08:03:48;;;;;;;3.22;2.63;;;9.90;99.90;;;;;;4989691;28;20046;-31
2022/10/28 08:06:19;;;;;;;4.40;2.58;;;10.00;99.90;;;;;;4987481;28;20117;-31
2022/10/28 08:08:47;;;;;;;5.03;3.35;;;10.00;99.90;;;;;;4989194;28;20035;-34
2022/10/28 08:11:15;;;;;;;5.32;3.25;;;10.10;99.90;;;;;;5001731;28;20034;-30
2022/10/28 08:13:42;;;;;;;3.75;2.70;;;10.30;99.90;;;;;;4988822;28;20112;-30
2022/10/28 08:16:08;;;;;;;5.82;2.83;;;10.30;99.90;;;;;;4987881;28;20031;-30
2022/10/28 08:18:35;;;;;;;4.50;3.05;;;10.40;99.90;;;;;;4988932;28;20479;-30
2022/10/28 08:21:02;;;;;;;6.28;3.53;;;10.50;99.90;;;;;;4984855;28;20026;-33
2022/10/28 08:23:29;;;;;;;8.65;3.65;;;10.60;99.90;;;;;;4992011;28;20033;-31
2022/10/28 08:25:55;;;;;;;6.60;3.28;;;10.60;99.90;;;;;;4987038;28;20114;-30
2022/10/28 08:28:21;;;;;;;6.03;3.50;;;10.60;99.90;;;;;;4990292;28;20028;-30
2022/10/28 08:30:47;;;;;;;7.00;3.97;;;10.70;99.90;;;;;;4984904;28;20038;-32
2022/10/28 08:33:12;;;;;;;6.78;4.00;;;10.80;99.90;;;;;;4985909;28;20435;-33
2022/10/28 08:35:39;;;;;;;9.77;4.32;;;11.00;99.90;;;;;;4985058;28;20026;-30
2022/10/28 08:38:05;;;;;;;5.65;3.53;;;11.10;99.90;;;;;;4986373;28;20454;-31
2022/10/28 08:40:56;;;;;;;7.32;3.13;;;11.10;99.90;;;;;;4984267;28;20030;-30
2022/10/28 08:43:40;;;;;;;6.28;3.70;;;11.30;99.90;;;;;;5000369;28;20023;-30
2022/10/28 08:46:25;;;;;;;3.58;2.78;;;11.30;99.90;;;;;;4984052;28;20034;-37
2022/10/28 08:48:51;;;;;;;5.40;3.00;;;11.30;99.90;;;;;;5000791;28;20113;-30
2022/10/28 08:51:38;;;;;;;4.15;2.97;;;11.40;99.90;;;;;;4984471;28;20514;-31
2022/10/28 08:54:12;;;;;;;5.22;3.13;;;11.50;99.90;;;;;;4982391;28;20069;-33
2022/10/28 08:56:44;;;;;;;5.10;2.72;;;11.60;99.90;;;;;;4982126;28;20065;-30
2022/10/28 08:59:33;;;;;;;3.67;2.35;;;11.80;99.90;;;;;;4985126;28;20034;-35
2022/10/28 09:02:21;;;;;;;2.83;2.30;;;12.00;99.90;;;;;;4996889;28;20141;-33
2022/10/28 09:04:53;;;;;;;4.13;2.20;;;12.20;99.90;;;;;;4985889;28;20042;-32
2022/10/28 09:07:21;;;;;;;2.90;2.20;;;12.40;99.90;;;;;;4986061;28;20038;-32
2022/10/28 09:09:48;;;;;;;4.68;2.30;;;12.50;99.90;;;;;;4983873;28;20565;-32
2022/10/28 09:12:41;;;;;;;6.13;2.70;;;12.60;99.90;;;;;;4986998;28;20491;-31
2022/10/28 09:15:21;;;;;;;5.28;2.22;;;12.70;99.90;;;;;;4985467;28;20125;-32
2022/10/28 09:18:19;;;;;;;6.55;2.83;;;12.90;99.90;;;;;;4986054;28;20599;-30
2022/10/28 09:21:01;;;;;;;5.65;2.30;;;13.00;99.90;;;;;;4986057;28;20600;-30
2022/10/28 09:23:36;;;;;;;3.60;2.20;;;13.20;99.90;;;;;;4982759;28;20492;-33
2022/10/28 09:26:07;;;;;;;3.75;2.45;;;13.30;99.90;;;;;;4983568;28;20078;-34
2022/10/28 09:28:57;;;;;;;3.55;2.10;;;13.40;99.90;;;;;;4984041;28;20049;-32
2022/10/28 09:31:39;;;;;;;7.20;2.00;;;13.50;99.90;;;;;;4984434;28;20121;-31
2022/10/28 09:34:27;;;;;;;3.55;2.35;;;13.90;99.90;;;;;;4999097;28;20419;-31
2022/10/28 09:36:58;;;;;;;7.50;2.43;;;13.90;99.90;;;;;;4986775;28;20031;-31
2022/10/28 09:39:29;;;;;;;3.40;2.17;;;14.00;99.90;;;;;;4985812;28;20035;-31
2022/10/28 09:41:59;;;;;;;2.20;1.63;;;14.10;99.90;;;;;;4985575;28;20498;-33
2022/10/28 09:44:55;;;;;;;6.50;2.47;;;14.30;99.90;;;;;;4984466;28;20042;-31
2022/10/28 09:47:25;;;;;;;6.50;2.78;;;14.40;99.90;;;;;;4986783;28;20066;-30
2022/10/28 09:49:54;;;;;;;3.53;2.00;;;14.40;99.90;;;;;;4989844;28;20544;-33
2022/10/28 09:52:32;;;;;;;4.55;2.17;;;14.50;99.90;;;;;;4990067;28;20034;-32
2022/10/28 09:55:01;;;;;;;9.10;5.25;;;14.60;99.90;;;;;;4988324;28;20117;-33
2022/10/28 09:57:30;;;;;;;24.00;15.63;;;14.70;99.90;;;;;;4984267;28;20038;-33
2022/10/28 09:59:56;;;;;;;3.90;3.10;;;14.80;99.90;;;;;;4987248;28;20025;-33
2022/10/28 10:02:30;;;;;;;3.15;2.60;;;14.80;99.90;;;;;;4984168;28;20034;-34
2022/10/28 10:04:58;;;;;;;3.17;2.30;;;14.80;99.90;;;;;;4988643;28;20121;-34
2022/10/28 10:07:42;;;;;;;6.40;2.30;;;14.90;99.90;;;;;;4988261;28;20122;-31
2022/10/28 10:10:16;;;;;;;3.88;1.90;;;14.90;99.90;;;;;;4988762;28;20507;-31
2022/10/28 10:12:42;;;;;;;3.35;2.00;;;14.90;99.90;;;;;;4989927;28;21859;-35
2022/10/28 10:15:16;;;;;;;3.55;2.30;;;15.00;99.90;;;;;;4986215;28;20030;-31
2022/10/28 10:17:44;;;;;;;3.13;1.73;;;15.00;99.90;;;;;;4986058;28;20065;-31
2022/10/28 10:20:16;;;;;;;2.33;2.00;;;15.10;99.90;;;;;;4987734;28;20032;-32
2022/10/28 10:22:44;;;;;;;2.60;1.98;;;15.10;99.90;;;;;;4982949;28;20065;-30
2022/10/28 10:25:19;;;;;;;3.25;1.90;;;15.20;99.90;;;;;;4991148;28;20030;-32
2022/10/28 10:28:00;;;;;;;3.70;2.20;;;15.20;99.90;;;;;;4985449;28;20034;-31
2022/10/28 10:30:39;;;;;;;3.55;2.40;;;15.30;99.90;;;;;;4984948;28;20038;-30
2022/10/28 10:33:20;;;;;;;5.68;2.38;;;15.40;99.90;;;;;;4988944;28;20371;-29
2022/10/28 10:35:57;;;;;;;4.70;2.47;;;15.40;99.90;;;;;;4986253;28;20034;-33
2022/10/28 10:38:24;;;;;;;7.03;2.05;;;15.50;99.90;;;;;;4991215;28;20402;-30
2022/10/28 10:40:51;;;;;;;3.08;2.20;;;15.50;99.90;;;;;;4987179;28;20503;-30
2022/10/28 10:43:16;;;;;;;5.15;2.13;;;15.60;99.90;;;;;;4987277;28;20109;-31
2022/10/28 10:46:02;;;;;;;3.60;2.25;;;15.60;99.90;;;;;;4988549;28;20552;-36
2022/10/28 10:48:31;;;;;;;6.65;2.63;;;15.70;99.90;;;;;;4986052;28;20058;-30
2022/10/28 10:50:57;;;;;;;6.07;2.83;;;15.90;99.90;;;;;;4987585;28;20038;-31
2022/10/28 10:53:26;;;;;;;5.53;2.72;;;16.00;99.90;;;;;;4984382;28;20027;-31
2022/10/28 10:55:56;;;;;;;3.95;2.53;;;16.00;99.90;;;;;;4989821;28;20022;-33
2022/10/28 10:58:25;;;;;;;4.75;2.35;;;16.10;99.90;;;;;;4985429;28;20034;-30
2022/10/28 11:00:53;;;;;;;4.65;2.78;;;16.10;99.90;;;;;;4985344;28;20033;-34
2022/10/28 11:03:33;;;;;;;5.57;2.53;;;16.10;99.90;;;;;;4986622;28;20042;-33
2022/10/28 11:06:01;;;;;;;3.97;2.40;;;16.20;99.90;;;;;;4984021;28;20038;-31
2022/10/28 11:08:33;;;;;;;6.43;2.58;;;16.30;99.90;;;;;;4985087;28;20062;-31
2022/10/28 11:11:11;;;;;;;5.68;2.42;;;16.30;99.90;;;;;;4986278;28;20034;-33
2022/10/28 11:13:38;;;;;;;6.20;2.20;;;16.40;99.90;;;;;;4986124;28;21679;-31
2022/10/28 11:16:06;;;;;;;5.95;2.55;;;16.50;99.90;;;;;;4988164;28;21460;-32
2022/10/28 11:18:44;;;;;;;6.45;2.40;;;16.60;99.90;;;;;;4986787;28;20025;-31
2022/10/28 11:21:23;;;;;;;7.28;2.55;;;16.70;99.90;;;;;;4987162;28;20488;-30
2022/10/28 11:24:20;;;;;;;2.83;2.58;;;16.70;99.90;;;;;;4984753;28;20480;-30
2022/10/28 11:27:01;;;;;;;3.03;2.33;;;16.80;99.90;;;;;;4978341;28;20061;-34
2022/10/28 11:29:27;;;;;;;4.80;2.22;;;16.90;99.90;;;;;;4989910;28;20037;-30
2022/10/28 11:32:06;;;;;;;5.00;2.58;;;17.00;99.90;;;;;;4987388;28;20026;-32
2022/10/28 11:34:45;;;;;;;4.25;2.47;;;17.00;99.90;;;;;;4997300;28;20033;-30
2022/10/28 11:37:20;;;;;;;3.28;1.98;;;17.10;99.90;;;;;;4987877;28;20042;-32
2022/10/28 11:40:13;;;;;;;3.03;1.80;;;17.20;99.90;;;;;;4993272;28;20085;-33
2022/10/28 11:42:57;;;;;;;2.33;1.80;;;17.20;99.90;;;;;;4987253;28;20026;-31
2022/10/28 11:45:44;;;;;;;7.35;2.22;;;17.30;99.90;;;;;;5004631;28;20026;-32
2022/10/28 11:48:21;;;;;;;3.85;1.95;;;17.40;99.90;;;;;;4990802;28;20027;-31
2022/10/28 11:51:11;;;;;;;6.45;2.03;;;17.30;99.90;;;;;;4989583;28;20026;-31
2022/10/28 11:54:15;;;;;;;3.00;1.67;;;17.40;99.90;;;;;;5005028;28;20031;-30
2022/10/28 11:56:48;;;;;;;5.80;1.88;;;17.40;99.90;;;;;;4934939;28;20035;-30
2022/10/28 11:59:23;;;;;;;3.90;2.28;;;17.50;99.90;;;;;;4990236;28;20038;-31
2022/10/28 12:02:22;;;;;;;4.25;2.03;;;17.60;99.90;;;;;;4986358;28;21998;-32
2022/10/28 12:05:02;;;;;;;5.22;2.10;;;17.70;99.90;;;;;;5004943;28;20046;-34
2022/10/28 12:07:37;;;;;;;3.67;2.65;;;17.70;99.90;;;;;;4989296;28;20031;-29
2022/10/28 12:10:29;;;;;;;4.00;1.92;;;17.80;99.90;;;;;;4987825;28;20037;-30
2022/10/28 12:13:01;;;;;;;5.90;2.20;;;17.90;99.90;;;;;;4988229;28;20042;-30
2022/10/28 12:16:05;;;;;;;4.13;2.10;;;18.00;99.90;;;;;;4988432;28;20038;-30
2022/10/28 12:18:50;;;;;;;3.70;1.80;;;18.00;99.90;;;;;;4990534;28;20171;-31
2022/10/28 12:21:57;;;;;;;3.83;1.92;;;18.20;99.90;;;;;;4985667;28;20151;-31
2022/10/28 12:24:24;;;;;;;6.72;1.60;;;18.20;99.90;;;;;;4993163;28;20038;-31
2022/10/28 12:26:57;;;;;;;6.93;1.65;;;18.30;99.90;;;;;;4989267;28;20033;-32
2022/10/28 12:29:28;;;;;;;3.80;1.42;;;18.30;99.90;;;;;;4988944;28;20484;-31
2022/10/28 12:32:03;;;;;;;5.75;1.70;;;18.40;99.90;;;;;;4985397;28;20121;-33
2022/10/28 12:35:03;;;;;;;2.75;1.67;;;18.50;99.90;;;;;;4987939;28;20503;-31
2022/10/28 12:37:48;;;;;;;4.75;1.70;;;18.60;99.90;;;;;;4989626;28;20034;-31
2022/10/28 12:40:48;;;;;;;3.53;1.70;;;18.70;99.90;;;;;;4987672;28;20053;-32
2022/10/28 12:43:32;;;;;;;5.03;1.80;;;18.90;99.90;;;;;;4990184;28;20030;-31
2022/10/28 12:45:57;;;;;;;3.92;1.60;;;18.90;99.90;;;;;;4990012;28;20122;-32
2022/10/28 12:48:41;;;;;;;3.75;1.65;;;18.90;99.90;;;;;;4991875;28;20121;-32
2022/10/28 12:51:11;;;;;;;58.47;6.43;;;19.00;98.00;;;;;;4991182;28;20037;-30
2022/10/28 12:53:55;;;;;;;5.25;1.85;;;19.10;97.40;;;;;;4986360;28;20015;-32
2022/10/28 12:56:36;;;;;;;10.52;2.83;;;19.20;97.80;;;;;;4992569;28;20109;-31
2022/10/28 12:59:29;;;;;;;6.72;2.00;;;19.10;98.10;;;;;;4987544;28;20622;-33
2022/10/28 13:01:59;;;;;;;168.43;16.88;;;19.20;97.90;;;;;;4988806;28;20039;-31
2022/10/28 13:04:26;;;;;;;71.28;8.38;;;19.30;98.00;;;;;;4988466;28;20047;-30
2022/10/28 13:07:09;;;;;;;19.98;2.72;;;19.40;94.90;;;;;;4992125;28;20030;-31
2022/10/28 13:10:03;;;;;;;23.13;3.55;;;19.50;93.90;;;;;;4990223;28;20464;-30
2022/10/28 13:12:41;;;;;;;7.03;1.65;;;19.50;92.10;;;;;;4983584;28;20601;-31
2022/10/28 13:15:25;;;;;;;4.95;1.90;;;19.70;93.90;;;;;;4984846;28;20030;-32
2022/10/28 13:18:06;;;;;;;36.60;6.38;;;19.80;92.30;;;;;;4986707;28;20300;-30
2022/10/28 13:20:58;;;;;;;7.82;2.35;;;19.70;94.50;;;;;;4986881;28;20077;-30
2022/10/28 13:23:49;;;;;;;4.75;1.52;;;19.70;89.80;;;;;;4989814;28;20548;-30